createdAt,value
2022-09-28T00:01:19.350Z,10.80
2022-09-28T00:06:27.415Z,10.50
2022-09-28T00:11:31.347Z,10.30
2022-09-28T00:16:38.602Z,11.50
2022-09-28T00:21:43.187Z,10.90
2022-09-28T00:26:52.481Z,11.20
2022-09-28T00:32:05.371Z,11.50
2022-09-28T00:37:10.463Z,10.60
2022-09-28T00:42:20.900Z,10.50
2022-09-28T00:47:55.135Z,11.70
2022-09-28T00:53:05.209Z,10.30
2022-09-28T00:58:16.501Z,10.20
2022-09-28T01:03:20.347Z,9.60
2022-09-28T01:08:27.916Z,8.10
2022-09-28T01:13:32.963Z,5.60
2022-09-28T01:18:43.978Z,6.70
2022-09-28T01:23:55.996Z,4.80
2022-09-28T01:29:16.859Z,5.20
2022-09-28T01:34:45.009Z,5.40
2022-09-28T01:39:52.724Z,4.00
2022-09-28T01:45:04.126Z,4.10
2022-09-28T01:50:14.191Z,3.20
2022-09-28T01:55:28.666Z,2.80
2022-09-28T02:00:35.399Z,4.00
2022-09-28T02:05:43.376Z,3.30
2022-09-28T02:11:11.570Z,2.10
2022-09-28T02:16:22.540Z,3.10
2022-09-28T02:21:34.270Z,1.40
2022-09-28T02:26:42.187Z,1.00
2022-09-28T02:31:45.477Z,0.60
2022-09-28T02:36:49.118Z,0.90
2022-09-28T02:42:04.407Z,0.70
2022-09-28T02:47:57.501Z,0.80
2022-09-28T02:53:37.559Z,0.60
2022-09-28T02:58:58.179Z,0.50
2022-09-28T03:04:12.650Z,0.60
2022-09-28T03:14:25.314Z,0.80
2022-09-28T03:19:32.662Z,0.70
2022-09-28T03:24:36.026Z,0.70
2022-09-28T03:29:39.645Z,0.80
2022-09-28T03:34:42.956Z,0.80
2022-09-28T03:39:46.165Z,1.10
2022-09-28T03:44:49.373Z,1.10
2022-09-28T03:49:52.685Z,1.00
2022-09-28T03:54:55.993Z,0.80
2022-09-28T03:59:59.210Z,0.90
2022-09-28T04:05:03.027Z,1.20
2022-09-28T04:10:06.950Z,0.60
2022-09-28T04:15:10.879Z,0.80
2022-09-28T04:20:14.904Z,1.20
2022-09-28T04:25:18.010Z,1.40
2022-09-28T04:30:22.243Z,0.80
2022-09-28T04:35:25.456Z,0.70
2022-09-28T04:40:28.919Z,1.10
2022-09-28T04:45:32.354Z,1.40
2022-09-28T04:50:35.690Z,1.50
2022-09-28T04:55:39.307Z,2.00
2022-09-28T05:00:42.761Z,1.90
2022-09-28T05:05:46.656Z,1.90
2022-09-28T05:11:01.527Z,1.50
2022-09-28T05:16:05.698Z,1.80
2022-09-28T05:21:13.782Z,2.30
2022-09-28T05:26:17.409Z,2.00
2022-09-28T05:31:20.786Z,2.50
2022-09-28T05:36:27.097Z,4.50
2022-09-28T05:41:30.301Z,3.80
2022-09-28T05:46:33.510Z,3.40
2022-09-28T05:51:36.716Z,3.10
2022-09-28T05:56:39.926Z,9.50
2022-09-28T06:01:43.281Z,5.70
2022-09-28T06:06:46.551Z,7.90
2022-09-28T06:11:50.683Z,8.30
2022-09-28T06:16:54.124Z,5.10
2022-09-28T06:21:59.259Z,10.60
2022-09-28T06:27:02.865Z,3.40
2022-09-28T06:32:07.607Z,4.40
2022-09-28T06:37:10.918Z,4.50
2022-09-28T06:42:15.969Z,3.90
2022-09-28T06:47:19.281Z,4.40
2022-09-28T06:52:22.489Z,4.80
2022-09-28T06:57:25.901Z,4.10
2022-09-28T07:02:29.383Z,6.00
2022-09-28T07:07:33.345Z,5.10
2022-09-28T07:12:36.857Z,4.90
2022-09-28T07:17:54.152Z,3.70
2022-09-28T07:23:16.081Z,5.90
2022-09-28T07:28:22.015Z,6.00
2022-09-28T07:33:30.242Z,11.80
2022-09-28T07:38:33.960Z,8.10
2022-09-28T07:43:39.889Z,5.70
2022-09-28T07:48:45.993Z,12.00
2022-09-28T07:53:49.526Z,10.90
2022-09-28T07:58:52.939Z,8.80
2022-09-28T08:03:56.558Z,11.50
2022-09-28T08:09:02.018Z,15.40
2022-09-28T08:14:05.329Z,14.40
2022-09-28T08:19:08.745Z,8.80
2022-09-28T08:24:14.343Z,6.30
2022-09-28T08:29:17.820Z,6.40
2022-09-28T08:34:21.236Z,6.30
2022-09-28T08:39:24.546Z,5.00
2022-09-28T08:44:39.579Z,5.20
2022-09-28T08:49:47.620Z,5.10
2022-09-28T08:55:02.330Z,8.30
2022-09-28T09:00:10.950Z,7.80
2022-09-28T09:05:24.315Z,13.40
2022-09-28T09:10:51.075Z,8.60
2022-09-28T09:16:15.749Z,5.90
2022-09-28T09:21:37.731Z,5.00
2022-09-28T09:26:41.964Z,7.70
2022-09-28T09:32:20.811Z,14.00
2022-09-28T09:37:34.875Z,14.20
2022-09-28T09:42:40.849Z,5.60
2022-09-28T09:47:58.494Z,5.50
2022-09-28T09:53:22.077Z,4.10
2022-09-28T09:58:49.043Z,2.80
2022-09-28T10:03:53.092Z,3.00
2022-09-28T10:09:04.986Z,2.70
2022-09-28T10:14:17.516Z,2.60
2022-09-28T10:19:31.370Z,4.20
2022-09-28T10:24:45.532Z,2.40
2022-09-28T10:30:00.415Z,2.50
2022-09-28T10:35:19.097Z,2.40
2022-09-28T10:40:45.017Z,1.90
2022-09-28T10:45:50.323Z,4.00
2022-09-28T10:51:09.057Z,8.50
2022-09-28T10:56:23.104Z,4.30
2022-09-28T11:06:40.300Z,1.50
2022-09-28T11:11:44.519Z,2.20
2022-09-28T11:21:51.346Z,8.90
2022-09-28T11:27:00.433Z,5.50
2022-09-28T11:32:06.877Z,15.70
2022-09-28T11:37:16.227Z,12.60
2022-09-28T11:42:54.913Z,5.90
2022-09-28T11:48:03.239Z,2.40
2022-09-28T11:53:27.600Z,5.30
2022-09-28T12:03:48.953Z,1.90
2022-09-28T12:09:01.140Z,1.30
2022-09-28T12:14:10.746Z,1.60
2022-09-28T12:19:33.719Z,1.10
2022-09-28T12:24:42.762Z,2.20
2022-09-28T12:29:49.045Z,1.00
2022-09-28T12:34:52.456Z,1.00
2022-09-28T12:40:21.203Z,2.10
2022-09-28T12:46:13.733Z,2.10
2022-09-28T12:51:23.283Z,2.20
2022-09-28T12:56:29.261Z,1.70
2022-09-28T13:01:47.444Z,2.40
2022-09-28T13:06:59.227Z,3.00
2022-09-28T13:12:25.987Z,1.00
2022-09-28T13:17:56.534Z,1.70
2022-09-28T13:23:21.148Z,1.30
2022-09-28T13:28:27.496Z,1.10
2022-09-28T13:33:51.530Z,1.00
2022-09-28T13:38:57.091Z,1.00
2022-09-28T13:44:38.405Z,1.20
2022-09-28T13:50:04.125Z,0.90
2022-09-28T13:55:32.996Z,1.30
2022-09-28T14:01:02.359Z,0.80
2022-09-28T14:06:23.704Z,1.40
2022-09-28T14:11:34.578Z,1.40
2022-09-28T14:16:39.504Z,1.10
2022-09-28T14:22:17.758Z,1.10
2022-09-28T14:27:45.951Z,1.50
2022-09-28T14:33:00.087Z,1.40
2022-09-28T14:38:31.486Z,1.30
2022-09-28T14:43:35.002Z,2.20
2022-09-28T14:48:49.189Z,3.20
2022-09-28T14:54:01.282Z,1.70
2022-09-28T14:59:07.476Z,5.00
2022-09-28T15:04:13.427Z,3.60
2022-09-28T15:09:30.569Z,3.20
2022-09-28T15:14:42.891Z,3.50
2022-09-28T15:20:09.757Z,3.40
2022-09-28T15:25:16.854Z,2.40
2022-09-28T15:30:33.475Z,2.90
2022-09-28T15:35:38.967Z,2.70
2022-09-28T15:40:42.587Z,3.00
2022-09-28T15:46:03.130Z,2.30
2022-09-28T15:51:13.045Z,2.60
2022-09-28T15:56:16.963Z,2.60
2022-09-28T16:01:36.835Z,3.80
2022-09-28T16:06:41.918Z,7.80
2022-09-28T16:11:45.223Z,12.10
2022-09-28T16:16:52.834Z,19.00
2022-09-28T16:21:59.220Z,14.30
2022-09-28T16:27:07.037Z,12.30
2022-09-28T16:32:25.707Z,11.20
2022-09-28T16:37:33.134Z,12.70
2022-09-28T16:42:38.050Z,16.80
2022-09-28T16:47:41.678Z,18.70
2022-09-28T16:53:03.573Z,10.20
2022-09-28T16:58:07.248Z,7.50
2022-09-28T17:03:14.919Z,12.20
2022-09-28T17:08:22.412Z,8.00
2022-09-28T17:13:34.894Z,5.80
2022-09-28T17:18:39.954Z,4.70
2022-09-28T17:23:44.587Z,4.30
2022-09-28T17:28:47.898Z,5.20
2022-09-28T17:33:52.337Z,4.10
2022-09-28T17:38:56.888Z,3.40
2022-09-28T17:44:03.360Z,4.40
2022-09-28T17:49:10.049Z,7.60
2022-09-28T17:54:13.973Z,12.60
2022-09-28T17:59:19.263Z,14.10
2022-09-28T18:04:50.204Z,16.90
2022-09-28T18:09:46.331Z,14.20
2022-09-28T18:14:49.852Z,9.70
2022-09-28T18:19:53.096Z,6.80
2022-09-28T18:24:56.674Z,8.20
2022-09-28T18:30:00.598Z,10.00
2022-09-28T18:35:08.987Z,7.50
2022-09-28T18:40:15.619Z,9.10
2022-09-28T18:45:19.337Z,9.10
2022-09-28T18:50:22.648Z,7.90
2022-09-28T18:55:26.884Z,9.00
2022-09-28T19:00:30.396Z,9.10
2022-09-28T19:05:35.402Z,8.70
2022-09-28T19:10:38.757Z,8.50
2022-09-28T19:15:42.126Z,8.40
2022-09-28T19:20:45.821Z,9.20
2022-09-28T19:25:49.307Z,10.50
2022-09-28T19:30:57.563Z,10.90
2022-09-28T19:36:03.754Z,9.00
2022-09-28T19:41:39.558Z,10.10
2022-09-28T19:46:45.796Z,8.10
2022-09-28T19:52:14.968Z,7.80
2022-09-28T19:57:19.932Z,6.80
2022-09-28T20:02:23.390Z,6.50
2022-09-28T20:07:26.652Z,4.70
2022-09-28T20:12:30.168Z,5.20
2022-09-28T20:17:33.589Z,3.70
2022-09-28T20:22:37.404Z,3.40
2022-09-28T20:27:40.716Z,2.60
2022-09-28T20:32:48.729Z,2.80
2022-09-28T20:37:53.173Z,3.30
2022-09-28T20:43:00.594Z,2.20
2022-09-28T20:48:06.537Z,2.10
2022-09-28T20:53:09.966Z,1.60
2022-09-28T20:58:13.281Z,1.90
2022-09-28T21:03:16.893Z,1.60
2022-09-28T21:08:24.165Z,2.00
2022-09-28T21:13:27.510Z,1.90
2022-09-28T21:18:31.025Z,2.20
2022-09-28T21:23:36.084Z,2.90
2022-09-28T21:28:40.208Z,2.10
2022-09-28T21:38:47.033Z,2.50
2022-09-28T21:43:50.350Z,2.10
2022-09-28T21:48:54.173Z,2.40
2022-09-28T21:53:57.784Z,2.10
2022-09-28T21:59:01.608Z,2.00
2022-09-28T22:04:04.921Z,3.40
2022-09-28T22:09:08.336Z,2.80
2022-09-28T22:14:11.769Z,3.90
2022-09-28T22:19:15.774Z,4.10
2022-09-28T22:24:19.200Z,4.20
2022-09-28T22:29:22.701Z,4.50
2022-09-28T22:34:28.265Z,3.80
2022-09-28T22:39:36.796Z,3.80
2022-09-28T22:44:41.131Z,4.20
2022-09-28T22:49:44.442Z,4.30
2022-09-28T22:54:50.110Z,3.70
2022-09-28T22:59:53.625Z,4.40
2022-09-28T23:04:56.939Z,5.10
2022-09-28T23:10:00.965Z,4.30
2022-09-28T23:15:05.403Z,3.10
2022-09-28T23:20:09.196Z,3.50
2022-09-28T23:25:12.638Z,3.30
2022-09-28T23:30:17.714Z,3.20
2022-09-28T23:35:20.999Z,3.60
2022-09-28T23:40:24.350Z,2.80
2022-09-28T23:45:27.928Z,2.40
2022-09-28T23:50:31.238Z,3.00
2022-09-28T23:55:34.651Z,3.70
